Franklin, Georgia
Current Conditions -  °F | °C
As of 9:35 PM on Sunday 23 Nov 2014 (Local Time) from KLGC Reporting Station
Overcast Overcast  
Wind Chill: 64°   Ceiling: 1200
Heat Index: 64°   Visibility: 10mi
Dew Point: 61°   Wind: 7mph
Humidity: 90%   Direction: 210°SSW
Pressure: 29.75"   Gusts: NA
Location:  33.28°N, 85.1°W
Report Text: KLGC 240235Z AUTO 21006KT 10SM OVC012 18/16 A2975 RMK AO2 T01800163
Loading
Personal Weather Stations






























Interactive Weather Map New forecast layout! Learn more

10-Day Weather Forecast

Advertisements
Track Severe Weather on mobile